This is the latest recevied weather packets stored in our database for station/object W4SNA-2. If no packets are shown the sender has not sent any weather packets the latest 10 day(s).
| Time | Temp. | Humidity | Pressure | Rain* | Wind** | Luminosity | Snow |
|---|---|---|---|---|---|---|---|
| 1777756316 | 13.33° C | 48% | 1012.3 hPa | 0 mm | - | - | - |
| 1777756016 | 13.33° C | 49% | 1012.2 hPa | 0 mm | - | - | - |
| 1777755716 | 13.33° C | 47% | 1012.2 hPa | 0 mm | - | - | - |
| 1777755416 | 13.33° C | 46% | 1012.2 hPa | 0 mm | - | - | - |
| 1777755116 | 13.33° C | 49% | 1012.2 hPa | 0 mm | - | - | - |
| 1777754816 | 13.89° C | 49% | 1012.1 hPa | 0 mm | - | - | - |
| 1777754516 | 14.44° C | 46% | 1012.1 hPa | 0 mm | - | - | - |
| 1777753632 | 15° C | 44% | 1012.1 hPa | 0 mm | - | - | - |
| 1777753332 | 14.44° C | 47% | 1012.3 hPa | 0 mm | - | - | - |
| 1777753032 | 14.44° C | 50% | 1012.2 hPa | 0 mm | - | - | - |
| 1777752732 | 13.89° C | 50% | 1012.4 hPa | 0 mm | - | - | - |
| 1777752432 | 13.33° C | 52% | 1012.5 hPa | 0 mm | - | - | - |
| 1777752132 | 13.33° C | 49% | 1012.6 hPa | 0 mm | - | - | - |
| 1777751832 | 13.33° C | 49% | 1012.6 hPa | 0 mm | - | - | - |
| 1777751532 | 12.78° C | 51% | 1012.7 hPa | 0 mm | - | - | - |
| 1777751235 | 12.78° C | 50% | 1012.8 hPa | 0 mm | - | - | - |
| 1777750932 | 13.33° C | 47% | 1012.9 hPa | 0 mm | - | - | - |
| 1777750632 | 13.89° C | 48% | 1013 hPa | 0 mm | - | - | - |
| 1777750332 | 13.89° C | 48% | 1013.1 hPa | 0 mm | - | - | - |
| 1777750032 | 13.33° C | 51% | 1013.2 hPa | 0 mm | - | - | - |
| 1777749732 | 13.33° C | 47% | 1013.3 hPa | 0 mm | - | - | - |
| 1777749434 | 12.78° C | 48% | 1013.2 hPa | 0 mm | - | - | - |
| 1777749132 | 12.78° C | 48% | 1013.2 hPa | 0 mm | - | - | - |
| 1777748865 | 12.78° C | 51% | 1013.3 hPa | 0 mm | - | - | - |
| 1777748832 | 12.78° C | 51% | 1013.3 hPa | 0 mm | - | - | - |
* Rain latest hour (hover to see other rain measurements)
** Current wind speed in m/s (hover to see current wind gust speed)